createdAt,value
2019-02-14T00:01:37.689Z,18.50
2019-02-14T00:06:45.460Z,18.86
2019-02-14T00:11:53.277Z,18.39
2019-02-14T00:17:02.206Z,19.46
2019-02-14T00:22:10.741Z,19.67
2019-02-14T00:27:19.353Z,18.92
2019-02-14T00:32:27.184Z,20.09
2019-02-14T00:37:35.061Z,19.15
2019-02-14T00:42:42.740Z,19.43
2019-02-14T00:47:50.689Z,19.44
2019-02-14T00:52:58.458Z,19.32
2019-02-14T00:58:06.201Z,19.91
2019-02-14T01:03:14.139Z,19.88
2019-02-14T01:08:21.845Z,19.51
2019-02-14T01:13:29.961Z,20.32
2019-02-14T01:18:38.002Z,19.76
2019-02-14T01:23:47.923Z,20.02
2019-02-14T01:28:55.613Z,20.50
2019-02-14T01:34:03.566Z,20.59
2019-02-14T01:39:13.585Z,20.47
2019-02-14T01:44:11.185Z,20.75
2019-02-14T01:49:19.052Z,20.15
2019-02-14T01:54:26.753Z,20.15
2019-02-14T01:59:38.133Z,20.53
2019-02-14T02:04:35.988Z,20.87
2019-02-14T02:09:43.753Z,20.94
2019-02-14T02:14:52.712Z,21.02
2019-02-14T02:20:00.698Z,20.74
2019-02-14T02:25:08.472Z,20.75
2019-02-14T02:30:16.078Z,21.08
2019-02-14T02:35:23.911Z,20.17
2019-02-14T02:40:33.766Z,20.65
2019-02-14T02:45:41.435Z,21.69
2019-02-14T02:50:53.457Z,20.10
2019-02-14T02:55:51.063Z,21.07
2019-02-14T03:00:58.714Z,20.62
2019-02-14T03:06:10.437Z,20.84
2019-02-14T03:11:13.778Z,20.84
2019-02-14T03:16:21.457Z,20.79
2019-02-14T03:21:29.353Z,21.32
2019-02-14T03:26:36.989Z,20.81
2019-02-14T03:31:44.646Z,20.43
2019-02-14T03:36:52.339Z,20.91
2019-02-14T03:41:59.933Z,20.85
2019-02-14T03:47:07.617Z,20.63
2019-02-14T03:52:15.335Z,19.79
2019-02-14T03:57:24.037Z,20.46
2019-02-14T04:02:31.844Z,21.34
2019-02-14T04:07:39.517Z,20.43
2019-02-14T04:12:47.637Z,20.76
2019-02-14T04:17:55.245Z,20.84
2019-02-14T04:23:03.250Z,20.39
2019-02-14T04:28:10.849Z,20.64
2019-02-14T04:33:19.022Z,20.43
2019-02-14T04:38:26.925Z,21.31
2019-02-14T04:43:34.852Z,20.47
2019-02-14T04:48:42.482Z,21.05
2019-02-14T04:53:52.293Z,20.19
2019-02-14T04:59:00.153Z,20.42
2019-02-14T05:04:07.833Z,20.49
2019-02-14T05:09:15.702Z,20.55
2019-02-14T05:14:24.393Z,20.71
2019-02-14T05:19:32.098Z,20.96
2019-02-14T05:24:41.006Z,21.34
2019-02-14T05:29:48.772Z,20.57
2019-02-14T05:34:56.393Z,20.70
2019-02-14T05:40:04.053Z,20.39
2019-02-14T05:45:11.738Z,20.25
2019-02-14T05:50:19.433Z,20.58
2019-02-14T05:55:28.261Z,19.89
2019-02-14T06:00:36.051Z,20.90
2019-02-14T06:05:43.665Z,20.34
2019-02-14T06:10:51.677Z,19.86
2019-02-14T06:15:59.469Z,20.59
2019-02-14T06:21:07.972Z,20.74
2019-02-14T06:26:15.569Z,19.94
2019-02-14T06:31:23.355Z,20.77
2019-02-14T06:36:31.786Z,21.14
2019-02-14T06:41:39.550Z,21.39
2019-02-14T06:46:47.192Z,20.74
2019-02-14T06:51:54.921Z,20.05
2019-02-14T06:57:02.620Z,20.72
2019-02-14T07:02:10.397Z,21.43
2019-02-14T07:07:18.982Z,21.93
2019-02-14T07:12:25.660Z,21.72
2019-02-14T07:17:33.269Z,21.81
2019-02-14T07:22:40.943Z,21.96
2019-02-14T07:27:48.766Z,23.17
2019-02-14T07:32:56.377Z,22.94
2019-02-14T07:38:04.117Z,34.14
2019-02-14T07:43:11.689Z,22.85
2019-02-14T07:48:19.488Z,23.07
2019-02-14T07:53:27.400Z,22.86
2019-02-14T07:58:35.281Z,23.22
2019-02-14T08:03:42.925Z,23.25
2019-02-14T08:08:51.415Z,23.24
2019-02-14T08:13:59.145Z,34.91
2019-02-14T08:19:07.205Z,23.80
2019-02-14T08:24:15.660Z,24.11
2019-02-14T08:29:23.356Z,24.07
2019-02-14T08:34:31.105Z,23.01
2019-02-14T08:39:38.762Z,23.04
2019-02-14T08:44:48.114Z,21.97
2019-02-14T08:49:56.254Z,21.59
2019-02-14T08:55:03.885Z,20.85
2019-02-14T09:00:12.726Z,20.27
2019-02-14T09:05:20.449Z,20.71
2019-02-14T09:10:28.530Z,19.71
2019-02-14T09:15:36.298Z,19.48
2019-02-14T09:20:44.017Z,18.93
2019-02-14T09:25:51.645Z,18.74
2019-02-14T09:30:59.465Z,18.31
2019-02-14T09:36:07.161Z,17.54
2019-02-14T09:41:15.018Z,17.15
2019-02-14T09:46:22.785Z,16.87
2019-02-14T09:51:30.610Z,17.00
2019-02-14T09:56:38.343Z,17.08
2019-02-14T10:01:46.089Z,17.29
2019-02-14T10:06:53.898Z,15.59
2019-02-14T10:12:01.590Z,16.30
2019-02-14T10:17:09.246Z,15.82
2019-02-14T10:22:16.973Z,16.77
2019-02-14T10:27:24.861Z,15.65
2019-02-14T10:32:32.497Z,14.91
2019-02-14T10:37:40.210Z,15.23
2019-02-14T10:42:48.304Z,14.88
2019-02-14T10:47:56.097Z,15.05
2019-02-14T10:53:03.764Z,14.34
2019-02-14T10:58:11.548Z,14.31
2019-02-14T11:03:19.241Z,14.11
2019-02-14T11:08:31.538Z,13.82
2019-02-14T11:13:34.289Z,13.51
2019-02-14T11:18:44.187Z,13.37
2019-02-14T11:23:49.126Z,13.01
2019-02-14T11:28:56.961Z,12.03
2019-02-14T11:34:04.662Z,11.76
2019-02-14T11:39:14.398Z,12.23
2019-02-14T11:44:22.045Z,11.39
2019-02-14T11:49:30.078Z,10.82
2019-02-14T11:54:37.798Z,10.76
2019-02-14T11:59:45.572Z,10.32
2019-02-14T12:04:53.606Z,9.92
2019-02-14T12:10:00.537Z,9.59
2019-02-14T12:15:09.283Z,9.69
2019-02-14T12:20:17.014Z,9.65
2019-02-14T12:25:24.635Z,10.16
2019-02-14T12:30:32.350Z,10.34
2019-02-14T12:35:40.077Z,9.12
2019-02-14T12:40:47.905Z,8.71
2019-02-14T12:45:55.602Z,8.91
2019-02-14T12:51:03.489Z,8.25
2019-02-14T12:56:11.207Z,8.17
2019-02-14T13:01:21.945Z,8.14
2019-02-14T13:06:27.803Z,8.06
2019-02-14T13:11:35.421Z,8.34
2019-02-14T13:16:43.249Z,8.75
2019-02-14T13:21:51.009Z,8.36
2019-02-14T13:26:58.649Z,8.10
2019-02-14T13:32:06.710Z,8.35
2019-02-14T13:37:14.437Z,8.45
2019-02-14T13:42:22.210Z,8.61
2019-02-14T13:47:30.002Z,8.11
2019-02-14T13:52:37.856Z,7.72
2019-02-14T13:57:45.593Z,7.55
2019-02-14T14:02:53.503Z,7.19
2019-02-14T14:08:01.973Z,7.20
2019-02-14T14:13:09.811Z,7.29
2019-02-14T14:18:17.517Z,7.45
2019-02-14T14:23:25.266Z,7.08
2019-02-14T14:28:33.053Z,7.53
2019-02-14T14:33:40.722Z,7.89
2019-02-14T14:38:48.418Z,7.73
2019-02-14T14:43:56.133Z,7.58
2019-02-14T14:49:04.011Z,7.94
2019-02-14T14:54:11.657Z,7.16
2019-02-14T14:59:19.665Z,7.36
2019-02-14T15:04:27.332Z,7.35
2019-02-14T15:09:37.436Z,7.45
2019-02-14T15:14:34.986Z,7.73
2019-02-14T15:19:42.683Z,7.34
2019-02-14T15:24:50.373Z,6.83
2019-02-14T15:29:58.030Z,6.47
2019-02-14T15:35:05.644Z,6.55
2019-02-14T15:40:13.509Z,6.27
2019-02-14T15:45:24.708Z,6.35
2019-02-14T15:50:22.498Z,5.42
2019-02-14T15:55:30.438Z,5.14
2019-02-14T16:00:39.499Z,5.23
2019-02-14T16:05:47.403Z,4.95
2019-02-14T16:10:55.925Z,4.66
2019-02-14T16:16:02.363Z,4.51
2019-02-14T16:21:10.071Z,4.67
2019-02-14T16:26:17.677Z,4.89
2019-02-14T16:31:25.770Z,4.62
2019-02-14T16:36:33.633Z,4.94
2019-02-14T16:41:41.274Z,4.93
2019-02-14T16:46:50.242Z,5.05
2019-02-14T16:51:59.030Z,5.19
2019-02-14T16:57:08.290Z,5.22
2019-02-14T17:02:17.173Z,5.25
2019-02-14T17:07:24.776Z,5.37
2019-02-14T17:12:32.497Z,5.29
2019-02-14T17:17:40.109Z,5.34
2019-02-14T17:22:48.209Z,5.34
2019-02-14T17:27:55.833Z,5.43
2019-02-14T17:33:03.614Z,5.53
2019-02-14T17:38:11.324Z,5.35
2019-02-14T17:43:21.101Z,5.46
2019-02-14T17:48:28.929Z,5.08
2019-02-14T17:53:36.590Z,5.17
2019-02-14T17:58:45.365Z,5.48
2019-02-14T18:03:53.148Z,5.27
2019-02-14T18:09:00.946Z,5.38
2019-02-14T18:14:08.732Z,5.25
2019-02-14T18:19:18.278Z,5.55
2019-02-14T18:24:25.979Z,5.63
2019-02-14T18:29:33.605Z,5.64
2019-02-14T18:34:41.521Z,5.65
2019-02-14T18:39:49.217Z,5.71
2019-02-14T18:44:57.000Z,5.63
2019-02-14T18:50:04.646Z,5.55
2019-02-14T18:55:12.474Z,6.07
2019-02-14T19:00:20.097Z,5.71
2019-02-14T19:05:28.685Z,5.77
2019-02-14T19:10:36.381Z,6.18
2019-02-14T19:15:44.101Z,6.07
2019-02-14T19:20:51.723Z,6.23
2019-02-14T19:25:59.439Z,7.01
2019-02-14T19:31:07.417Z,7.08
2019-02-14T19:36:15.389Z,7.23
2019-02-14T19:41:25.587Z,7.09
2019-02-14T19:46:31.951Z,7.11
2019-02-14T19:51:39.552Z,7.15
2019-02-14T19:56:47.399Z,7.28
2019-02-14T20:01:56.137Z,7.84
2019-02-14T20:07:03.853Z,7.69
2019-02-14T20:12:11.794Z,7.52
2019-02-14T20:17:19.461Z,7.91
2019-02-14T20:22:27.138Z,7.76
2019-02-14T20:27:34.940Z,8.01
2019-02-14T20:32:42.848Z,7.78
2019-02-14T20:37:50.717Z,8.11
2019-02-14T20:43:00.401Z,8.24
2019-02-14T20:48:08.331Z,8.17
2019-02-14T20:53:16.125Z,8.49
2019-02-14T20:58:24.253Z,8.43
2019-02-14T21:03:31.890Z,8.54
2019-02-14T21:08:39.554Z,8.28
2019-02-14T21:13:47.301Z,8.58
2019-02-14T21:18:55.134Z,8.42
2019-02-14T21:24:03.750Z,8.46
2019-02-14T21:29:11.650Z,8.26
2019-02-14T21:34:21.396Z,8.44
2019-02-14T21:39:29.040Z,8.57
2019-02-14T21:44:37.104Z,8.61
2019-02-14T21:49:44.760Z,9.24
2019-02-14T21:54:52.488Z,8.63
2019-02-14T22:00:00.147Z,9.47
2019-02-14T22:05:07.368Z,9.27
2019-02-14T22:10:15.158Z,9.34
2019-02-14T22:15:22.970Z,10.60
2019-02-14T22:20:32.690Z,10.86
2019-02-14T22:25:41.470Z,10.25
2019-02-14T22:30:49.177Z,9.51
2019-02-14T22:35:57.035Z,8.82
2019-02-14T22:41:04.619Z,8.72
2019-02-14T22:46:12.324Z,8.56
2019-02-14T22:51:21.120Z,8.85
2019-02-14T22:56:28.780Z,9.05
2019-02-14T23:01:36.469Z,9.20
2019-02-14T23:06:44.089Z,8.90
2019-02-14T23:11:51.841Z,8.84
2019-02-14T23:16:59.524Z,9.34
2019-02-14T23:22:07.494Z,8.71
2019-02-14T23:27:15.181Z,9.00
2019-02-14T23:32:22.877Z,9.04
2019-02-14T23:37:30.574Z,9.22
2019-02-14T23:42:39.678Z,9.25
2019-02-14T23:47:47.380Z,9.14
2019-02-14T23:52:54.981Z,8.98
2019-02-14T23:58:02.812Z,9.46
